EZY116 GCLP-BIKF
Flight info
| Callsign | EZY116 |
|---|---|
| Flight time | N/A |
| Altitude | 24000 |
| Route | BIMBO UN745 SNT/N0454F340 T16 IDREL DCT NAVIX/M078F340 DCT 40N019W/M078F350 45N019W/M078F370 50N019W 55N019W 60N019W DCT 6119N/M078F380 DCT RUMUX DCT BASLU BASLU3K |
| Aircraft | A320/M-SDE3FGHIRWY/LB1 |
Departure
| Time | 2026-04-28 09:59 |
|---|---|
| Airport | Gran Canaria Airport (GCLP) |
Arrival
| Time | N/A |
|---|---|
| Airport | Keflavik International Airport (BIKF) |
| Time | Latitude | Longitude | Altitude | Speed | Heading |
|---|---|---|---|---|---|
| 2026-04-28 09:24 | 27.93733 | -15.38880 | 88 ft | 0 kts | 291° |
| 2026-04-28 09:46 | 27.93733 | -15.38878 | 90 ft | 1 kts | 291° |
| 2026-04-28 09:46 | 27.93726 | -15.38860 | 86 ft | 3 kts | 288° |
| 2026-04-28 09:46 | 27.93721 | -15.38838 | 89 ft | 3 kts | 283° |
| 2026-04-28 09:46 | 27.93717 | -15.38815 | 87 ft | 3 kts | 272° |
| 2026-04-28 09:47 | 27.93718 | -15.38794 | 86 ft | 3 kts | 242° |
| 2026-04-28 09:47 | 27.93726 | -15.38782 | 88 ft | 1 kts | 202° |
| 2026-04-28 09:49 | 27.93719 | -15.38785 | 87 ft | 4 kts | 201° |
| 2026-04-28 09:49 | 27.93693 | -15.38794 | 87 ft | 4 kts | 198° |
| 2026-04-28 09:49 | 27.93676 | -15.38801 | 83 ft | 4 kts | 201° |
| 2026-04-28 09:50 | 27.93652 | -15.38811 | 83 ft | 2 kts | 201° |
| 2026-04-28 09:50 | 27.93622 | -15.38824 | 84 ft | 10 kts | 201° |
| 2026-04-28 09:50 | 27.93569 | -15.38848 | 84 ft | 6 kts | 201° |
| 2026-04-28 09:50 | 27.93542 | -15.38860 | 84 ft | 2 kts | 201° |
| 2026-04-28 09:51 | 27.93536 | -15.38862 | 84 ft | 0 kts | 201° |
| 2026-04-28 09:51 | 27.93535 | -15.38863 | 85 ft | 0 kts | 201° |
| 2026-04-28 09:51 | 27.93498 | -15.38874 | 85 ft | 8 kts | 195° |
| 2026-04-28 09:51 | 27.93457 | -15.38891 | 85 ft | 4 kts | 201° |
| 2026-04-28 09:52 | 27.93442 | -15.38897 | 85 ft | 1 kts | 201° |
| 2026-04-28 09:52 | 27.93403 | -15.38915 | 85 ft | 6 kts | 201° |
| 2026-04-28 09:52 | 27.93373 | -15.38928 | 83 ft | 3 kts | 201° |
| 2026-04-28 09:52 | 27.93317 | -15.38954 | 85 ft | 14 kts | 202° |
| 2026-04-28 09:53 | 27.93203 | -15.39003 | 85 ft | 18 kts | 201° |
| 2026-04-28 09:53 | 27.93103 | -15.39046 | 83 ft | 13 kts | 201° |
| 2026-04-28 09:53 | 27.93018 | -15.39085 | 84 ft | 13 kts | 201° |
| 2026-04-28 09:53 | 27.92949 | -15.39115 | 85 ft | 11 kts | 201° |
| 2026-04-28 09:54 | 27.92852 | -15.39159 | 90 ft | 18 kts | 200° |
| 2026-04-28 09:54 | 27.92766 | -15.39214 | 90 ft | 10 kts | 220° |
| 2026-04-28 09:54 | 27.92712 | -15.39254 | 94 ft | 9 kts | 200° |
| 2026-04-28 09:54 | 27.92628 | -15.39290 | 97 ft | 15 kts | 200° |
| 2026-04-28 09:55 | 27.92530 | -15.39329 | 100 ft | 14 kts | 186° |
| 2026-04-28 09:55 | 27.92458 | -15.39299 | 101 ft | 9 kts | 138° |
| 2026-04-28 09:55 | 27.92429 | -15.39240 | 96 ft | 9 kts | 111° |
| 2026-04-28 09:55 | 27.92399 | -15.39211 | 97 ft | 4 kts | 173° |
| 2026-04-28 09:56 | 27.92354 | -15.39226 | 98 ft | 11 kts | 202° |
| 2026-04-28 09:56 | 27.92236 | -15.39279 | 99 ft | 21 kts | 202° |
| 2026-04-28 09:56 | 27.92111 | -15.39335 | 98 ft | 19 kts | 201° |
| 2026-04-28 09:56 | 27.91976 | -15.39395 | 95 ft | 21 kts | 201° |
| 2026-04-28 09:57 | 27.91890 | -15.39368 | 90 ft | 6 kts | 127° |
| 2026-04-28 09:57 | 27.91894 | -15.39333 | 89 ft | 7 kts | 71° |
| 2026-04-28 09:57 | 27.91909 | -15.39286 | 87 ft | 6 kts | 68° |
| 2026-04-28 09:57 | 27.91931 | -15.39233 | 90 ft | 7 kts | 64° |
| 2026-04-28 09:58 | 27.91960 | -15.39201 | 85 ft | 5 kts | 28° |
| 2026-04-28 09:58 | 27.91989 | -15.39188 | 86 ft | 10 kts | 21° |
| 2026-04-28 09:58 | 27.92308 | -15.39049 | 75 ft | 88 kts | 21° |
| 2026-04-28 09:58 | 27.93102 | -15.38696 | 60 ft | 153 kts | 21° |
| 2026-04-28 09:59 | 27.94217 | -15.38184 | 323 ft | 184 kts | 26° |
| 2026-04-28 09:59 | 27.95483 | -15.37571 | 451 ft | 216 kts | 24° |
| 2026-04-28 09:59 | 27.96963 | -15.36905 | 716 ft | 240 kts | 22° |
| 2026-04-28 09:59 | 27.98543 | -15.36237 | 1450 ft | 245 kts | 19° |
| 2026-04-28 10:00 | 28.00150 | -15.35566 | 2283 ft | 247 kts | 18° |
| 2026-04-28 10:00 | 28.01775 | -15.34887 | 3113 ft | 251 kts | 18° |
| 2026-04-28 10:00 | 28.03424 | -15.34196 | 3909 ft | 254 kts | 19° |
| 2026-04-28 10:00 | 28.05090 | -15.33493 | 4711 ft | 257 kts | 20° |
| 2026-04-28 10:01 | 28.06768 | -15.32774 | 5472 ft | 260 kts | 20° |
| 2026-04-28 10:01 | 28.08473 | -15.32038 | 6221 ft | 264 kts | 20° |
| 2026-04-28 10:01 | 28.10185 | -15.31294 | 6920 ft | 268 kts | 20° |
| 2026-04-28 10:01 | 28.11937 | -15.30531 | 7571 ft | 273 kts | 19° |
| 2026-04-28 10:02 | 28.13723 | -15.29752 | 8231 ft | 277 kts | 19° |
| 2026-04-28 10:02 | 28.15583 | -15.29124 | 8887 ft | 281 kts | 12° |
| 2026-04-28 10:02 | 28.17493 | -15.28576 | 9559 ft | 285 kts | 11° |
| 2026-04-28 10:02 | 28.19434 | -15.28027 | 10202 ft | 291 kts | 11° |
| 2026-04-28 10:03 | 28.21474 | -15.27455 | 10378 ft | 313 kts | 11° |
| 2026-04-28 10:03 | 28.23666 | -15.26841 | 10498 ft | 336 kts | 12° |
| 2026-04-28 10:03 | 28.25986 | -15.26187 | 10846 ft | 348 kts | 12° |
| 2026-04-28 10:03 | 28.28355 | -15.25512 | 11428 ft | 353 kts | 12° |
| 2026-04-28 10:04 | 28.30751 | -15.24826 | 12056 ft | 356 kts | 12° |
| 2026-04-28 10:04 | 28.33168 | -15.24153 | 12655 ft | 359 kts | 8° |
| 2026-04-28 10:04 | 28.35652 | -15.24115 | 13236 ft | 359 kts | 347° |
| 2026-04-28 10:04 | 28.37958 | -15.25158 | 13822 ft | 359 kts | 325° |
| 2026-04-28 10:05 | 28.39740 | -15.27121 | 14350 ft | 360 kts | 303° |
| 2026-04-28 10:05 | 28.40744 | -15.29678 | 14887 ft | 363 kts | 284° |
| 2026-04-28 10:05 | 28.41390 | -15.32455 | 15408 ft | 365 kts | 290° |
| 2026-04-28 10:05 | 28.42610 | -15.35031 | 15945 ft | 368 kts | 308° |
| 2026-04-28 10:06 | 28.44288 | -15.37184 | 16493 ft | 370 kts | 312° |
| 2026-04-28 10:06 | 28.46081 | -15.39300 | 17043 ft | 372 kts | 314° |
| 2026-04-28 10:06 | 28.47925 | -15.41381 | 17589 ft | 375 kts | 315° |
| 2026-04-28 10:06 | 28.49796 | -15.43453 | 18133 ft | 377 kts | 315° |
| 2026-04-28 10:07 | 28.51683 | -15.45542 | 18635 ft | 379 kts | 315° |
| 2026-04-28 10:07 | 28.53573 | -15.47648 | 19104 ft | 382 kts | 314° |
| 2026-04-28 10:07 | 28.55561 | -15.49664 | 19564 ft | 385 kts | 322° |
| 2026-04-28 10:07 | 28.57866 | -15.51243 | 20019 ft | 389 kts | 333° |
| 2026-04-28 10:08 | 28.60427 | -15.52284 | 20475 ft | 394 kts | 345° |
| 2026-04-28 10:08 | 28.63147 | -15.52817 | 20922 ft | 398 kts | 349° |
| 2026-04-28 10:08 | 28.65900 | -15.53283 | 21370 ft | 401 kts | 349° |
| 2026-04-28 10:08 | 28.68665 | -15.53756 | 21794 ft | 403 kts | 349° |
| 2026-04-28 10:09 | 28.71452 | -15.54241 | 22220 ft | 406 kts | 348° |
| 2026-04-28 10:09 | 28.74249 | -15.54732 | 22634 ft | 408 kts | 348° |
| 2026-04-28 10:09 | 28.77063 | -15.55229 | 23037 ft | 411 kts | 348° |
| 2026-04-28 10:09 | 28.79894 | -15.55727 | 23439 ft | 413 kts | 348° |
| 2026-04-28 10:10 | 28.82741 | -15.56226 | 23793 ft | 415 kts | 348° |
| 2026-04-28 10:10 | 28.85605 | -15.56726 | 24121 ft | 417 kts | 348° |
| 2026-04-28 10:10 | 28.88478 | -15.57227 | 24444 ft | 419 kts | 348° |
| 2026-04-28 10:10 | 28.91364 | -15.57733 | 24762 ft | 420 kts | 348° |
| 2026-04-28 10:11 | 28.94260 | -15.58239 | 25073 ft | 422 kts | 348° |
| 2026-04-28 10:11 | 28.97167 | -15.58748 | 25392 ft | 423 kts | 348° |
| 2026-04-28 10:11 | 29.00038 | -15.59249 | 25696 ft | 425 kts | 348° |
| 2026-04-28 10:11 | 29.02964 | -15.59763 | 26002 ft | 426 kts | 348° |
| 2026-04-28 10:12 | 29.05899 | -15.60282 | 26298 ft | 427 kts | 348° |
| 2026-04-28 10:12 | 29.08841 | -15.60801 | 26594 ft | 429 kts | 348° |
| 2026-04-28 10:12 | 29.11796 | -15.61320 | 26891 ft | 430 kts | 348° |
| 2026-04-28 10:12 | 29.14755 | -15.61840 | 27173 ft | 431 kts | 348° |
| 2026-04-28 10:13 | 29.17733 | -15.62362 | 27451 ft | 433 kts | 348° |
| 2026-04-28 10:13 | 29.20708 | -15.62883 | 27726 ft | 434 kts | 348° |
| 2026-04-28 10:13 | 29.23699 | -15.63405 | 27990 ft | 435 kts | 348° |
| 2026-04-28 10:13 | 29.26698 | -15.63932 | 28248 ft | 437 kts | 348° |
| 2026-04-28 10:14 | 29.29707 | -15.64464 | 28503 ft | 438 kts | 348° |
| 2026-04-28 10:14 | 29.32725 | -15.64998 | 28752 ft | 439 kts | 348° |
| 2026-04-28 10:14 | 29.35743 | -15.65534 | 28987 ft | 440 kts | 348° |
| 2026-04-28 10:14 | 29.38738 | -15.66068 | 29211 ft | 441 kts | 348° |
| 2026-04-28 10:15 | 29.41773 | -15.66611 | 29442 ft | 442 kts | 348° |
| 2026-04-28 10:15 | 29.44814 | -15.67157 | 29652 ft | 443 kts | 348° |
| 2026-04-28 10:15 | 29.47862 | -15.67705 | 29863 ft | 444 kts | 348° |
| 2026-04-28 10:15 | 29.50914 | -15.68252 | 30150 ft | 443 kts | 348° |
| 2026-04-28 10:16 | 29.53955 | -15.68798 | 30409 ft | 442 kts | 348° |
| 2026-04-28 10:16 | 29.56992 | -15.69345 | 30669 ft | 441 kts | 348° |
| 2026-04-28 10:16 | 29.60021 | -15.69891 | 30902 ft | 440 kts | 348° |
| 2026-04-28 10:16 | 29.63045 | -15.70437 | 31144 ft | 439 kts | 348° |
| 2026-04-28 10:17 | 29.66056 | -15.70979 | 31384 ft | 438 kts | 348° |
| 2026-04-28 10:17 | 29.69069 | -15.71519 | 31631 ft | 437 kts | 348° |
| 2026-04-28 10:17 | 29.72076 | -15.72059 | 31865 ft | 437 kts | 348° |
| 2026-04-28 10:17 | 29.75082 | -15.72603 | 32106 ft | 436 kts | 348° |
| 2026-04-28 10:18 | 29.78073 | -15.73145 | 32337 ft | 435 kts | 348° |
| 2026-04-28 10:18 | 29.81061 | -15.73687 | 32568 ft | 435 kts | 348° |
| 2026-04-28 10:18 | 29.84048 | -15.74230 | 32793 ft | 434 kts | 348° |
| 2026-04-28 10:18 | 29.87034 | -15.74772 | 33018 ft | 434 kts | 348° |
| 2026-04-28 10:19 | 29.90015 | -15.75312 | 33239 ft | 433 kts | 348° |
| 2026-04-28 10:19 | 29.92992 | -15.75845 | 33467 ft | 433 kts | 348° |
| 2026-04-28 10:19 | 29.95969 | -15.76380 | 33686 ft | 432 kts | 348° |
| 2026-04-28 10:19 | 29.98937 | -15.76920 | 33908 ft | 432 kts | 348° |
| 2026-04-28 10:20 | 30.01903 | -15.77460 | 34058 ft | 432 kts | 348° |
| 2026-04-28 10:20 | 30.04875 | -15.77998 | 34096 ft | 431 kts | 348° |
| 2026-04-28 10:20 | 30.10798 | -15.79069 | 34094 ft | 431 kts | 348° |
| 2026-04-28 10:21 | 30.16683 | -15.80138 | 34099 ft | 431 kts | 348° |
| 2026-04-28 10:21 | 30.22599 | -15.81222 | 34092 ft | 431 kts | 348° |
| 2026-04-28 10:22 | 30.28525 | -15.82301 | 34096 ft | 431 kts | 348° |
| 2026-04-28 10:22 | 30.34443 | -15.83374 | 34097 ft | 431 kts | 348° |
| 2026-04-28 10:23 | 30.40369 | -15.84464 | 34100 ft | 430 kts | 348° |
| 2026-04-28 10:23 | 30.46281 | -15.85550 | 34097 ft | 430 kts | 348° |
| 2026-04-28 10:24 | 30.52192 | -15.86638 | 34097 ft | 430 kts | 348° |
| 2026-04-28 10:24 | 30.58102 | -15.87725 | 34092 ft | 430 kts | 348° |
| 2026-04-28 10:25 | 30.64014 | -15.88803 | 34097 ft | 430 kts | 348° |
| 2026-04-28 10:25 | 30.69886 | -15.89880 | 34094 ft | 430 kts | 348° |
| 2026-04-28 10:26 | 30.75788 | -15.90969 | 34099 ft | 430 kts | 348° |
| 2026-04-28 10:26 | 30.81693 | -15.92063 | 34096 ft | 430 kts | 348° |
| 2026-04-28 10:27 | 30.87597 | -15.93151 | 34095 ft | 429 kts | 349° |
| 2026-04-28 10:27 | 30.93505 | -15.94238 | 34094 ft | 429 kts | 349° |
| 2026-04-28 10:28 | 30.99407 | -15.95331 | 34097 ft | 429 kts | 349° |
| 2026-04-28 10:29 | 31.08248 | -15.96967 | 34099 ft | 429 kts | 349° |
| 2026-04-28 10:29 | 31.14145 | -15.98069 | 34100 ft | 429 kts | 349° |
| 2026-04-28 10:30 | 31.20002 | -15.99163 | 34098 ft | 429 kts | 349° |
| 2026-04-28 10:30 | 31.25895 | -16.00258 | 34093 ft | 429 kts | 349° |
| 2026-04-28 10:31 | 31.31786 | -16.01347 | 34093 ft | 429 kts | 349° |
| 2026-04-28 10:31 | 31.37678 | -16.02452 | 34092 ft | 429 kts | 349° |
| 2026-04-28 10:32 | 31.43563 | -16.03551 | 34096 ft | 429 kts | 349° |
| 2026-04-28 10:32 | 31.49454 | -16.04646 | 34098 ft | 428 kts | 349° |
| 2026-04-28 10:33 | 31.55338 | -16.05750 | 34097 ft | 428 kts | 349° |
| 2026-04-28 10:33 | 31.61225 | -16.06861 | 34095 ft | 428 kts | 349° |
| 2026-04-28 10:34 | 31.67111 | -16.07967 | 34098 ft | 428 kts | 349° |
| 2026-04-28 10:34 | 31.72966 | -16.09066 | 34103 ft | 429 kts | 349° |
| 2026-04-28 10:35 | 31.78859 | -16.10173 | 34096 ft | 428 kts | 349° |
| 2026-04-28 10:35 | 31.84742 | -16.11288 | 34098 ft | 428 kts | 349° |
| 2026-04-28 10:36 | 31.90624 | -16.12401 | 34097 ft | 428 kts | 349° |
| 2026-04-28 10:36 | 31.96514 | -16.13510 | 34088 ft | 429 kts | 349° |
| 2026-04-28 10:37 | 32.02404 | -16.14620 | 34091 ft | 429 kts | 349° |
| 2026-04-28 10:37 | 32.08292 | -16.15732 | 34095 ft | 429 kts | 349° |
| 2026-04-28 10:38 | 32.14180 | -16.16851 | 34097 ft | 428 kts | 349° |
| 2026-04-28 10:38 | 32.20067 | -16.17973 | 34098 ft | 429 kts | 349° |
| 2026-04-28 10:39 | 32.25955 | -16.19096 | 34093 ft | 429 kts | 349° |
| 2026-04-28 10:39 | 32.31844 | -16.20221 | 34097 ft | 429 kts | 349° |
| 2026-04-28 10:40 | 32.37731 | -16.21345 | 34094 ft | 428 kts | 349° |
| 2026-04-28 10:40 | 32.43580 | -16.22459 | 34094 ft | 429 kts | 349° |
| 2026-04-28 10:41 | 32.49470 | -16.23583 | 34096 ft | 429 kts | 349° |
| 2026-04-28 10:41 | 32.54366 | -16.24520 | 34095 ft | 429 kts | 349° |
| 2026-04-28 10:42 | 32.60254 | -16.25648 | 34095 ft | 429 kts | 349° |
| 2026-04-28 10:42 | 32.66136 | -16.26778 | 34093 ft | 428 kts | 350° |
| 2026-04-28 10:43 | 32.72026 | -16.27907 | 34095 ft | 428 kts | 350° |
| 2026-04-28 10:43 | 32.77899 | -16.29034 | 34102 ft | 428 kts | 350° |
| 2026-04-28 10:44 | 32.83781 | -16.30175 | 34101 ft | 428 kts | 350° |
| 2026-04-28 10:44 | 32.89652 | -16.31314 | 34105 ft | 428 kts | 350° |
| 2026-04-28 10:45 | 32.95529 | -16.32451 | 34111 ft | 428 kts | 350° |
| 2026-04-28 10:45 | 33.01407 | -16.33581 | 34115 ft | 428 kts | 350° |
| 2026-04-28 10:46 | 33.07286 | -16.34726 | 34111 ft | 428 kts | 351° |
| 2026-04-28 10:46 | 33.13237 | -16.34871 | 34111 ft | 430 kts | 1° |
| 2026-04-28 10:47 | 33.19210 | -16.34580 | 34108 ft | 430 kts | 1° |
| 2026-04-28 10:47 | 33.25186 | -16.34305 | 34106 ft | 430 kts | 1° |
| 2026-04-28 10:48 | 33.31128 | -16.34038 | 34102 ft | 430 kts | 1° |
| 2026-04-28 10:48 | 33.37105 | -16.33765 | 34099 ft | 430 kts | 1° |
| 2026-04-28 10:49 | 33.43084 | -16.33483 | 34094 ft | 430 kts | 1° |
| 2026-04-28 10:49 | 33.49076 | -16.33202 | 34094 ft | 430 kts | 1° |
| 2026-04-28 10:50 | 33.55059 | -16.32917 | 34096 ft | 430 kts | 1° |
| 2026-04-28 10:50 | 33.61049 | -16.32638 | 34092 ft | 431 kts | 1° |
| 2026-04-28 10:51 | 33.67042 | -16.32353 | 34095 ft | 431 kts | 1° |
| 2026-04-28 10:51 | 33.73039 | -16.32074 | 34095 ft | 431 kts | 1° |
| 2026-04-28 10:52 | 33.79036 | -16.31789 | 34094 ft | 431 kts | 1° |
| 2026-04-28 10:52 | 33.85034 | -16.31508 | 34097 ft | 432 kts | 1° |
| 2026-04-28 10:53 | 33.90997 | -16.31227 | 34097 ft | 432 kts | 1° |
| 2026-04-28 10:53 | 33.97007 | -16.30940 | 34093 ft | 432 kts | 1° |
| 2026-04-28 10:54 | 34.03021 | -16.30654 | 34092 ft | 432 kts | 1° |
| 2026-04-28 10:54 | 34.09038 | -16.30371 | 34093 ft | 433 kts | 1° |
| 2026-04-28 10:55 | 34.15023 | -16.30083 | 34095 ft | 433 kts | 1° |
| 2026-04-28 10:55 | 34.21051 | -16.29798 | 34096 ft | 433 kts | 1° |
| 2026-04-28 10:56 | 34.27077 | -16.29506 | 34093 ft | 433 kts | 1° |
| 2026-04-28 10:56 | 34.33105 | -16.29212 | 34094 ft | 434 kts | 1° |
| 2026-04-28 10:57 | 34.39138 | -16.28931 | 34093 ft | 434 kts | 1° |
| 2026-04-28 10:57 | 34.45169 | -16.28642 | 34091 ft | 434 kts | 1° |
| 2026-04-28 10:58 | 34.51209 | -16.28338 | 34092 ft | 434 kts | 1° |
| 2026-04-28 10:58 | 34.57252 | -16.28043 | 34088 ft | 434 kts | 1° |
| 2026-04-28 10:59 | 34.63286 | -16.27754 | 34090 ft | 434 kts | 1° |
| 2026-04-28 10:59 | 34.69298 | -16.27477 | 34098 ft | 435 kts | 1° |
| 2026-04-28 11:00 | 34.75350 | -16.27190 | 34096 ft | 435 kts | 1° |
| 2026-04-28 11:00 | 34.81396 | -16.26890 | 34092 ft | 435 kts | 1° |
| 2026-04-28 11:01 | 34.87453 | -16.26586 | 34089 ft | 435 kts | 1° |
| 2026-04-28 11:01 | 34.93508 | -16.26293 | 34091 ft | 436 kts | 1° |
| 2026-04-28 11:02 | 34.99572 | -16.25997 | 34095 ft | 436 kts | 1° |
| 2026-04-28 11:02 | 35.05631 | -16.25703 | 34097 ft | 436 kts | 1° |
| 2026-04-28 11:03 | 35.11700 | -16.25420 | 34093 ft | 436 kts | 1° |
| 2026-04-28 11:03 | 35.17728 | -16.25134 | 34092 ft | 436 kts | 1° |
| 2026-04-28 11:04 | 35.23800 | -16.24831 | 34093 ft | 436 kts | 1° |
| 2026-04-28 11:04 | 35.29858 | -16.24532 | 34093 ft | 435 kts | 1° |
| 2026-04-28 11:05 | 35.35920 | -16.24232 | 34098 ft | 436 kts | 1° |
| 2026-04-28 11:05 | 35.41994 | -16.23929 | 34090 ft | 437 kts | 1° |
| 2026-04-28 11:06 | 35.48068 | -16.23643 | 34094 ft | 436 kts | 359° |
| 2026-04-28 11:06 | 35.54003 | -16.24754 | 34097 ft | 435 kts | 341° |
| 2026-04-28 11:07 | 35.59531 | -16.27761 | 34097 ft | 435 kts | 334° |
| 2026-04-28 11:07 | 35.65006 | -16.30935 | 34098 ft | 435 kts | 335° |
| 2026-04-28 11:08 | 35.70478 | -16.34101 | 34104 ft | 434 kts | 335° |
| 2026-04-28 11:08 | 35.75951 | -16.37283 | 34098 ft | 434 kts | 335° |
| 2026-04-28 11:09 | 35.81426 | -16.40467 | 34093 ft | 434 kts | 335° |
| 2026-04-28 11:09 | 35.86861 | -16.43623 | 34101 ft | 434 kts | 334° |
| 2026-04-28 11:10 | 35.92332 | -16.46822 | 34096 ft | 434 kts | 334° |
| 2026-04-28 11:10 | 35.97793 | -16.50016 | 34097 ft | 434 kts | 334° |
| 2026-04-28 11:11 | 36.03258 | -16.53212 | 34101 ft | 434 kts | 334° |
| 2026-04-28 11:11 | 36.08718 | -16.56412 | 34096 ft | 434 kts | 334° |
| 2026-04-28 11:12 | 36.14136 | -16.59601 | 34096 ft | 434 kts | 334° |
| 2026-04-28 11:12 | 36.19595 | -16.62814 | 34102 ft | 434 kts | 334° |
| 2026-04-28 11:13 | 36.25042 | -16.66025 | 34100 ft | 434 kts | 334° |
| 2026-04-28 11:13 | 36.30499 | -16.69236 | 34102 ft | 433 kts | 334° |
| 2026-04-28 11:14 | 36.35953 | -16.72451 | 34098 ft | 433 kts | 334° |
| 2026-04-28 11:14 | 36.41394 | -16.75681 | 34107 ft | 433 kts | 334° |
| 2026-04-28 11:15 | 36.46798 | -16.78886 | 34106 ft | 433 kts | 334° |
| 2026-04-28 11:15 | 36.52239 | -16.82112 | 34101 ft | 433 kts | 334° |
| 2026-04-28 11:16 | 36.57681 | -16.85349 | 34104 ft | 433 kts | 334° |
| 2026-04-28 11:16 | 36.63121 | -16.88596 | 34104 ft | 433 kts | 334° |
| 2026-04-28 11:17 | 36.68552 | -16.91834 | 34099 ft | 433 kts | 334° |
| 2026-04-28 11:17 | 36.73988 | -16.95073 | 34112 ft | 433 kts | 334° |
| 2026-04-28 11:18 | 36.79421 | -16.98327 | 34109 ft | 433 kts | 334° |
| 2026-04-28 11:18 | 36.84808 | -17.01558 | 34101 ft | 432 kts | 334° |
| 2026-04-28 11:19 | 36.90237 | -17.04823 | 34104 ft | 432 kts | 334° |
| 2026-04-28 11:19 | 36.95651 | -17.08084 | 34114 ft | 431 kts | 334° |
| 2026-04-28 11:20 | 37.01066 | -17.11347 | 34109 ft | 431 kts | 334° |
| 2026-04-28 11:20 | 37.06473 | -17.14601 | 34107 ft | 431 kts | 334° |
| 2026-04-28 11:21 | 37.11846 | -17.17840 | 34108 ft | 431 kts | 334° |
| 2026-04-28 11:21 | 37.17239 | -17.21107 | 34114 ft | 430 kts | 334° |
| 2026-04-28 11:22 | 37.22631 | -17.24377 | 34111 ft | 430 kts | 334° |
| 2026-04-28 11:22 | 37.28026 | -17.27644 | 34112 ft | 430 kts | 334° |
| 2026-04-28 11:23 | 37.33408 | -17.30923 | 34109 ft | 429 kts | 334° |
| 2026-04-28 11:23 | 37.38732 | -17.34170 | 34124 ft | 419 kts | 333° |
| 2026-04-28 11:23 | 37.41320 | -17.35750 | 34113 ft | 408 kts | 333° |
| 2026-04-28 11:24 | 37.43862 | -17.37298 | 34113 ft | 405 kts | 333° |
| 2026-04-28 11:24 | 37.48922 | -17.40376 | 34116 ft | 403 kts | 333° |
| 2026-04-28 11:25 | 37.53964 | -17.43461 | 34123 ft | 402 kts | 333° |
| 2026-04-28 11:25 | 37.59003 | -17.46552 | 34115 ft | 403 kts | 333° |
| 2026-04-28 11:26 | 37.64015 | -17.49628 | 34125 ft | 403 kts | 333° |
| 2026-04-28 11:26 | 37.69053 | -17.52724 | 34125 ft | 403 kts | 333° |
| 2026-04-28 11:27 | 37.74098 | -17.55829 | 34113 ft | 403 kts | 333° |
| 2026-04-28 11:27 | 37.79138 | -17.58941 | 34130 ft | 403 kts | 333° |
| 2026-04-28 11:28 | 37.84171 | -17.62058 | 34123 ft | 403 kts | 333° |
| 2026-04-28 11:28 | 37.89174 | -17.65151 | 34120 ft | 403 kts | 333° |
| 2026-04-28 11:29 | 37.94224 | -17.68266 | 34119 ft | 403 kts | 333° |
| 2026-04-28 11:29 | 37.98445 | -17.70879 | 34126 ft | 403 kts | 333° |
| 2026-04-28 11:30 | 38.03485 | -17.74012 | 34126 ft | 403 kts | 332° |
| 2026-04-28 11:30 | 38.11037 | -17.78711 | 34125 ft | 403 kts | 332° |
| 2026-04-28 11:31 | 38.16043 | -17.81836 | 34127 ft | 403 kts | 332° |
| 2026-04-28 11:31 | 38.21078 | -17.84979 | 34199 ft | 402 kts | 332° |